»·PEaware :: SWA1611 KLAX-KSEA

SWA1611 :: KLAX-KSEA

FLIGHT INFORMATION

Flight Status: Arrived
Operator:
Southwest Airlines
More flights by this operator :: More flights under this callsign
Pilot: Jared D. (18606)
Aircraft: BOEING 737-800
(B738)
More flights by this aircraft type
Origin: KLAX Los Angeles Intl
United States
Destination: KSEA Seattle-Tacoma Intl
United States
More flights between these airports :: More routes between these airports
Route: LADYJ4 CSTRO SHIMR LKV BTG HAWKZ6
File this flight plan on PilotEdge
Remarks:
Altitude:
(Current/Filed)
380ft
Speed:
(Current/Filed)
450kts
Departed: 08-Apr-18 01:25 PM
Arrived: 08-Apr-18 03:57 PM
Distance/Time
Traveled:
829nm/2:32
Distance/Time
To Go:
Arrived

Flight Plot

Page will automatically refresh every two minutes.

Flight plan parsing failed; only flown route is shown


Map Options




Map Legend


Flown Route
Filed Route
Departure Airport
Arrival Airport
Navaid (VOR, NDB)
Fix

Horizontal Profiles

Position Reports

Time Latitude Longitude Heading Altitude Ground
Speed
08-Apr-18 12:47 33.940641 -118.397665 83 113ft 0kts
08-Apr-18 12:48 33.940641 -118.397665 83 113ft 0kts
08-Apr-18 12:49 33.940641 -118.397665 83 113ft 0kts
08-Apr-18 12:50 33.940641 -118.397665 83 113ft 0kts
08-Apr-18 12:51 33.940641 -118.397665 83 113ft 0kts
08-Apr-18 12:52 33.940641 -118.397665 83 113ft 0kts
08-Apr-18 12:53 33.940641 -118.397665 83 113ft 0kts
08-Apr-18 12:54 33.940641 -118.397665 83 113ft 0kts
08-Apr-18 12:55 33.940641 -118.397665 83 113ft 0kts
08-Apr-18 12:56 33.940641 -118.397665 83 113ft 0kts
08-Apr-18 12:57 33.940641 -118.397665 83 113ft 0kts
08-Apr-18 12:58 33.940641 -118.397665 83 113ft 0kts
08-Apr-18 12:59 33.940641 -118.397665 83 113ft 0kts
08-Apr-18 13:00 33.940641 -118.397665 83 113ft 0kts
08-Apr-18 13:01 33.940641 -118.397665 83 113ft 0kts
08-Apr-18 13:02 33.940641 -118.397665 83 113ft 0kts
08-Apr-18 13:03 33.940641 -118.397665 83 113ft 0kts
08-Apr-18 13:04 33.940641 -118.397665 83 113ft 0kts
08-Apr-18 13:05 33.940641 -118.397665 83 113ft 0kts
08-Apr-18 13:06 33.940641 -118.397665 83 113ft 0kts
08-Apr-18 13:07 33.940641 -118.397665 83 113ft 0kts
08-Apr-18 13:08 33.940641 -118.397665 83 113ft 0kts
08-Apr-18 13:09 33.940641 -118.397665 83 113ft 0kts
08-Apr-18 13:10 33.940641 -118.397665 83 113ft 0kts
08-Apr-18 13:11 33.940641 -118.397665 83 113ft 0kts
08-Apr-18 13:12 33.940634 -118.397668 83 113ft 1kts
08-Apr-18 13:13 33.940836 -118.398276 150 113ft 2kts
08-Apr-18 13:14 33.941055 -118.398354 172 113ft 0kts
08-Apr-18 13:15 33.941055 -118.398354 172 113ft 0kts
08-Apr-18 13:16 33.941055 -118.398354 172 113ft 0kts
08-Apr-18 13:17 33.941055 -118.398354 172 113ft 0kts
08-Apr-18 13:18 33.941001 -118.398346 173 113ft 2kts
08-Apr-18 13:19 33.939952 -118.396586 82 113ft 13kts
08-Apr-18 13:20 33.940475 -118.391516 83 113ft 17kts
08-Apr-18 13:21 33.940882 -118.386650 83 113ft 14kts
08-Apr-18 13:22 33.940096 -118.383294 172 113ft 10kts
08-Apr-18 13:23 33.938112 -118.383003 173 113ft 12kts
08-Apr-18 13:24 33.934823 -118.407942 263 318ft 192kts
08-Apr-18 13:25 33.928265 -118.495287 267 3664ft 268kts
08-Apr-18 13:26 33.921708 -118.582952 264 6660ft 263kts
08-Apr-18 13:27 33.953836 -118.654175 328 8013ft 273kts
08-Apr-18 13:28 34.026337 -118.680087 4 8178ft 315kts
08-Apr-18 13:29 34.112347 -118.666194 9 9588ft 347kts
08-Apr-18 13:30 34.207019 -118.642373 7 13433ft 351kts
08-Apr-18 13:31 34.297785 -118.644267 344 17199ft 327kts
08-Apr-18 13:32 34.388666 -118.665094 344 20363ft 343kts
08-Apr-18 13:33 34.484360 -118.685405 344 23047ft 349kts
08-Apr-18 13:34 34.580936 -118.704311 344 23075ft 359kts
08-Apr-18 13:35 34.679902 -118.723703 344 24805ft 368kts
08-Apr-18 13:36 34.773907 -118.766522 324 27207ft 368kts
08-Apr-18 13:37 34.864215 -118.829613 323 29422ft 383kts
08-Apr-18 13:38 34.956925 -118.893747 323 31842ft 384kts
08-Apr-18 13:39 35.049466 -118.957780 324 33966ft 385kts
08-Apr-18 13:40 35.140135 -119.020597 324 35880ft 382kts
08-Apr-18 13:41 35.232215 -119.084533 324 37498ft 381kts
08-Apr-18 13:42 35.324439 -119.148786 324 38249ft 394kts
08-Apr-18 13:43 35.422826 -119.217590 325 38239ft 421kts
08-Apr-18 13:44 35.535820 -119.263090 341 38219ft 434kts
08-Apr-18 13:45 35.652772 -119.297208 340 38216ft 433kts
08-Apr-18 13:46 35.769684 -119.331969 340 38216ft 433kts
08-Apr-18 13:47 35.886562 -119.366959 340 38220ft 434kts
08-Apr-18 13:48 36.003471 -119.402119 340 38236ft 434kts
08-Apr-18 13:49 36.117399 -119.436541 340 38238ft 437kts
08-Apr-18 13:50 36.233650 -119.471735 340 38232ft 432kts
08-Apr-18 13:51 36.350371 -119.507239 340 38232ft 434kts
08-Apr-18 13:52 36.467222 -119.542892 340 38232ft 433kts
08-Apr-18 13:53 36.584166 -119.578695 340 38226ft 433kts
08-Apr-18 13:54 36.700758 -119.614507 340 38222ft 433kts
08-Apr-18 13:55 36.817296 -119.650420 340 38222ft 433kts
08-Apr-18 13:56 36.932625 -119.686123 340 38231ft 433kts
08-Apr-18 13:57 37.048622 -119.722086 339 38230ft 424kts
08-Apr-18 13:58 37.158950 -119.756363 338 38231ft 412kts
08-Apr-18 13:59 37.269893 -119.791064 338 38232ft 414kts
08-Apr-18 14:00 37.381473 -119.826052 338 38231ft 414kts
08-Apr-18 14:01 37.492787 -119.861058 338 38229ft 414kts
08-Apr-18 14:02 37.603834 -119.896099 339 38214ft 413kts
08-Apr-18 14:03 37.715089 -119.931291 339 38217ft 413kts
08-Apr-18 14:04 37.825993 -119.966471 339 38219ft 413kts
08-Apr-18 14:05 37.918652 -119.995941 339 38217ft 413kts
08-Apr-18 14:06 38.029670 -120.031343 339 38216ft 412kts
08-Apr-18 14:07 38.138721 -120.066219 339 38221ft 413kts
08-Apr-18 14:08 38.250297 -120.099667 347 38214ft 420kts
08-Apr-18 14:09 38.367029 -120.109745 348 38219ft 422kts
08-Apr-18 14:10 38.483707 -120.119897 348 38218ft 422kts
08-Apr-18 14:11 38.600707 -120.130350 348 38218ft 422kts
08-Apr-18 14:12 38.717060 -120.140860 348 38217ft 422kts
08-Apr-18 14:13 38.833819 -120.151483 348 38215ft 422kts
08-Apr-18 14:14 38.950133 -120.162067 347 38214ft 417kts
08-Apr-18 14:15 39.063949 -120.172393 346 38211ft 406kts
08-Apr-18 14:16 39.175417 -120.182716 346 38226ft 408kts
08-Apr-18 14:17 39.288128 -120.193186 346 38227ft 408kts
08-Apr-18 14:18 39.400989 -120.203699 346 38225ft 408kts
08-Apr-18 14:19 39.513863 -120.214249 346 38222ft 408kts
08-Apr-18 14:20 39.626870 -120.224847 346 38207ft 408kts
08-Apr-18 14:21 39.739388 -120.235434 346 38195ft 408kts
08-Apr-18 14:22 39.852340 -120.246098 346 38195ft 408kts
08-Apr-18 14:23 39.983986 -120.258569 346 38194ft 408kts
08-Apr-18 14:24 40.077823 -120.267486 346 38197ft 408kts
08-Apr-18 14:25 40.189843 -120.278166 346 38208ft 408kts
08-Apr-18 14:26 40.301193 -120.288816 346 38207ft 408kts
08-Apr-18 14:27 40.413869 -120.299636 346 38206ft 408kts
08-Apr-18 14:28 40.527137 -120.310552 346 38205ft 408kts
08-Apr-18 14:29 40.639731 -120.321445 346 38204ft 408kts
08-Apr-18 14:30 40.752479 -120.332396 346 38203ft 408kts
08-Apr-18 14:31 40.865424 -120.343410 346 38205ft 408kts
08-Apr-18 14:32 40.978398 -120.354467 346 38211ft 408kts
08-Apr-18 14:33 41.089412 -120.365208 344 38206ft 396kts
08-Apr-18 14:34 41.195225 -120.375599 343 38216ft 392kts
08-Apr-18 14:35 41.303608 -120.386385 343 38214ft 392kts
08-Apr-18 14:36 41.412212 -120.397193 343 38212ft 392kts
08-Apr-18 14:37 41.520775 -120.408028 343 38211ft 393kts
08-Apr-18 14:38 41.629256 -120.418881 343 38208ft 392kts
08-Apr-18 14:39 41.737647 -120.429768 343 38209ft 393kts
08-Apr-18 14:40 41.846104 -120.440679 343 38195ft 392kts
08-Apr-18 14:41 41.954709 -120.451653 343 38179ft 392kts
08-Apr-18 14:42 42.063228 -120.462643 343 38176ft 392kts
08-Apr-18 14:43 42.170574 -120.473561 343 38185ft 393kts
08-Apr-18 14:44 42.279081 -120.484619 343 38185ft 392kts
08-Apr-18 14:45 42.387190 -120.495674 343 38184ft 391kts
08-Apr-18 14:46 42.495230 -120.508242 335 38169ft 380kts
08-Apr-18 14:47 42.588399 -120.562659 326 38180ft 367kts
08-Apr-18 14:48 42.681245 -120.619431 326 38177ft 368kts
08-Apr-18 14:49 42.770616 -120.673907 326 38194ft 367kts
08-Apr-18 14:50 42.863194 -120.730604 326 38193ft 367kts
08-Apr-18 14:51 42.955779 -120.787386 326 38190ft 363kts
08-Apr-18 14:52 43.046941 -120.843427 326 38188ft 358kts
08-Apr-18 14:53 43.135534 -120.898037 327 38154ft 359kts
08-Apr-18 14:54 43.226346 -120.954144 326 38117ft 358kts
08-Apr-18 14:55 43.317165 -121.010394 326 38112ft 359kts
08-Apr-18 14:56 43.408147 -121.066906 326 38110ft 360kts
08-Apr-18 14:57 43.498971 -121.123475 326 38106ft 360kts
08-Apr-18 14:58 43.590313 -121.180616 326 38105ft 361kts
08-Apr-18 14:59 43.681368 -121.237720 326 38103ft 361kts
08-Apr-18 15:00 43.772729 -121.295230 326 38101ft 361kts
08-Apr-18 15:01 43.864121 -121.352930 326 38099ft 361kts
08-Apr-18 15:02 43.954697 -121.410257 326 38115ft 357kts
08-Apr-18 15:03 44.044757 -121.467476 325 38110ft 358kts
08-Apr-18 15:04 44.134091 -121.524434 326 38120ft 358kts
08-Apr-18 15:05 44.224347 -121.582181 325 38117ft 358kts
08-Apr-18 15:06 44.314465 -121.640084 326 38117ft 358kts
08-Apr-18 15:07 44.403842 -121.698014 325 38127ft 357kts
08-Apr-18 15:08 44.493622 -121.756456 325 38115ft 357kts
08-Apr-18 15:09 44.583182 -121.814894 325 38110ft 357kts
08-Apr-18 15:10 44.672796 -121.873506 325 38122ft 356kts
08-Apr-18 15:11 44.762248 -121.932163 325 38191ft 357kts
08-Apr-18 15:12 44.851720 -121.990999 325 38229ft 357kts
08-Apr-18 15:13 44.941151 -122.050002 325 38224ft 356kts
08-Apr-18 15:14 45.031000 -122.109494 326 38218ft 361kts
08-Apr-18 15:15 45.121451 -122.169634 328 38234ft 368kts
08-Apr-18 15:16 45.213352 -122.230835 328 38227ft 368kts
08-Apr-18 15:17 45.304801 -122.291894 328 38224ft 368kts
08-Apr-18 15:18 45.396610 -122.353414 328 38219ft 369kts
08-Apr-18 15:19 45.482981 -122.411090 327 38077ft 319kts
08-Apr-18 15:20 45.562599 -122.464883 327 36447ft 322kts
08-Apr-18 15:21 45.643267 -122.519548 327 34840ft 325kts
08-Apr-18 15:22 45.724413 -122.574698 327 33222ft 330kts
08-Apr-18 15:23 45.815436 -122.609385 341 31525ft 354kts
08-Apr-18 15:24 45.912907 -122.633070 341 29732ft 362kts
08-Apr-18 15:25 46.012005 -122.657421 340 27935ft 366kts
08-Apr-18 15:26 46.107445 -122.680949 341 26206ft 359kts
08-Apr-18 15:27 46.203740 -122.699836 342 25962ft 357kts
08-Apr-18 15:28 46.302209 -122.719305 342 26004ft 359kts
08-Apr-18 15:29 46.403184 -122.726895 349 25401ft 365kts
08-Apr-18 15:30 46.502950 -122.729820 348 25252ft 367kts
08-Apr-18 15:31 46.604213 -122.733107 348 23361ft 358kts
08-Apr-18 15:32 46.702085 -122.736464 348 21603ft 351kts
08-Apr-18 15:33 46.798658 -122.724508 17 19718ft 374kts
08-Apr-18 15:34 46.883883 -122.625863 31 17306ft 439kts
08-Apr-18 15:35 46.979920 -122.542734 11 16682ft 339kts
08-Apr-18 15:36 47.070265 -122.503359 12 14377ft 338kts
08-Apr-18 15:37 47.158877 -122.483690 2 11935ft 325kts
08-Apr-18 15:38 47.240986 -122.470853 1 10065ft 282kts
08-Apr-18 15:39 47.316235 -122.459739 1 8866ft 267kts
08-Apr-18 15:40 47.388589 -122.453338 355 7794ft 262kts
08-Apr-18 15:41 47.461052 -122.454040 355 6726ft 261kts
08-Apr-18 15:42 47.532758 -122.450924 4 5979ft 246kts
08-Apr-18 15:43 47.598515 -122.437466 5 5984ft 245kts
08-Apr-18 15:44 47.663925 -122.425929 357 5990ft 240kts
08-Apr-18 15:45 47.731758 -122.422808 358 5258ft 239kts
08-Apr-18 15:46 47.797931 -122.420310 358 5266ft 242kts
08-Apr-18 15:47 47.845872 -122.369109 88 5264ft 230kts
08-Apr-18 15:48 47.818687 -122.295516 135 5082ft 219kts
08-Apr-18 15:49 47.776964 -122.243713 177 3973ft 201kts
08-Apr-18 15:50 47.726744 -122.274272 206 3901ft 207kts
08-Apr-18 15:51 47.673606 -122.304448 197 3954ft 207kts
08-Apr-18 15:52 47.617078 -122.307441 180 3406ft 208kts
08-Apr-18 15:53 47.561911 -122.307009 182 2328ft 193kts
08-Apr-18 15:54 47.512330 -122.307399 180 1385ft 158kts
08-Apr-18 15:55 47.468318 -122.307744 180 558ft 162kts
08-Apr-18 15:56 47.438081 -122.307113 98 366ft 16kts
08-Apr-18 15:57 47.437923 -122.306583 138 366ft 5kts
08-Apr-18 15:58 47.437267 -122.302891 84 366ft 13kts
08-Apr-18 15:59 47.438088 -122.301316 356 371ft 0kts

Navigation Log

Ident Type
Flight plan parsing failed, navigation log unavailable